Gulf Coast — C6UW7 — position and weather

sailwx.info

Track history (hours):
 
Tides and Currents Weather Stations Pressure Air Temp Water Temp Dewpoint Dewpoint Depression Visibility Wind Speed Wind Dir Waves Ship Positions

Gulf Coast

Last reported at 2017-Sep-21 11:32 UTC. Time now 2017-Oct-17 08:12 UTC.
Position S 32°06' E 153°12'.
Warning: this ship's position is 25 days out of date.

Length 228 m; draft 8 m.

Type: Tanker. MMSI: 309977000.

Date/timePositionNaut miles runAvg speedWind from/ knotsBaromVisibWave heightAir tempDewpointWater temp
2017-Sep-21 11:32S 32°06' E 153°12'410.9
2017-Sep-21 11:11S 32°09' E 153°11'210.9
2017-Sep-21 11:00S 32°11' E 153°10'5 9.0
2017-Sep-21 10:30S 32°15' E 153°08'4 8.9
2017-Sep-21 10:01S 32°20' E 153°07'8 9.3
2017-Sep-21 09:09S 32°27' E 153°04'1 9.6
2017-Sep-21 09:00S 32°29' E 153°03'5 9.8
2017-Sep-21 08:30S 32°33' E 153°01'510.0
2017-Sep-21 08:00S 32°38' E 152°60'510.0
2017-Sep-21 07:31S 32°43' E 152°57'7 9.6
2017-Sep-21 06:46S 32°49' E 152°53'3 9.4
2017-Sep-21 06:25S 32°52' E 152°51'4 9.4
2017-Sep-21 06:00S 32°55' E 152°48'5 9.2
2017-Sep-21 05:30S 32°58' E 152°45'510.0
2017-Sep-21 05:00S 33°02' E 152°41'510.6
2017-Sep-21 04:30S 33°06' E 152°37'611.5
2017-Sep-21 04:00S 33°10' E 152°31'611.3
2017-Sep-21 03:31S 33°14' E 152°28'612.2
2017-Sep-21 03:00S 33°20' E 152°25'1212.4
2017-Sep-21 02:04S 33°29' E 152°15'113.2
2017-Sep-21 02:00S 33°29' E 152°15'612.6
2017-Sep-21 01:30S 33°33' E 152°09'1212.3
2017-Sep-21 00:32S 33°41' E 151°58'011.2
2017-Sep-21 00:30S 33°42' E 151°58'1712.5
2017-Sep-20 23:08S 33°53' E 151°43'212.7
2017-Sep-20 22:59S 33°54' E 151°41'  
2017-Sep-18 18:57S 34°03' E 151°23'1 3.2
2017-Sep-18 18:30S 34°03' E 151°25'2 4.2
2017-Sep-18 18:00S 34°04' E 151°27'611.4
2017-Sep-18 17:30S 34°00' E 151°33'612.8
2017-Sep-18 17:01S 33°56' E 151°39'612.5
2017-Sep-18 16:30S 33°52' E 151°44'612.4
2017-Sep-18 16:00S 33°48' E 151°50'510.6
2017-Sep-18 15:30S 33°44' E 151°55'510.2
2017-Sep-18 15:00S 33°41' E 151°59'510.0
2017-Sep-18 14:30S 33°37' E 152°04'5 9.9
2017-Sep-18 14:00S 33°34' E 152°08'5 9.9
2017-Sep-18 13:30S 33°31' E 152°13'510.0
2017-Sep-18 13:00S 33°27' E 152°17'510.2
2017-Sep-18 12:30S 33°24' E 152°22'510.0
2017-Sep-18 12:00S 33°21' E 152°26'5 9.1
2017-Sep-18 11:30S 33°18' E 152°30'5 9.6
2017-Sep-18 11:00S 33°14' E 152°34'911.5
2017-Sep-18 10:13S 33°08' E 152°42'412.5
2017-Sep-18 09:56S 33°06' E 152°45'613.9
2017-Sep-18 09:30S 33°02' E 152°51'1214.4
2017-Sep-18 08:38S 32°50' E 152°54'614.2
2017-Sep-18 08:14S 32°44' E 152°57'314.4
2017-Sep-18 08:00S 32°41' E 152°58'714.0
2017-Sep-18 07:30S 32°35' E 153°01'  
Track history (hours):
 
Tides and Currents Weather Stations Pressure Air Temp Water Temp Dewpoint Dewpoint Depression Visibility Wind Speed Wind Dir Waves Ship Positions

Gulf Coast

Last reported at 2017-Sep-21 11:32 UTC. Time now 2017-Oct-17 08:12 UTC.
Position S 32°06' E 153°12'.
Warning: this ship's position is 25 days out of date.

Length 228 m; draft 8 m.

Type: Tanker. MMSI: 309977000.

Date/timePositionNaut miles runAvg speedWind from/ knotsBaromVisibWave heightAir tempDewpointWater temp
2017-Sep-21 11:32S 32°06' E 153°12'410.9
2017-Sep-21 11:11S 32°09' E 153°11'210.9
2017-Sep-21 11:00S 32°11' E 153°10'5 9.0
2017-Sep-21 10:30S 32°15' E 153°08'4 8.9
2017-Sep-21 10:01S 32°20' E 153°07'8 9.3
2017-Sep-21 09:09S 32°27' E 153°04'1 9.6
2017-Sep-21 09:00S 32°29' E 153°03'5 9.8
2017-Sep-21 08:30S 32°33' E 153°01'510.0
2017-Sep-21 08:00S 32°38' E 152°60'510.0
2017-Sep-21 07:31S 32°43' E 152°57'7 9.6
2017-Sep-21 06:46S 32°49' E 152°53'3 9.4
2017-Sep-21 06:25S 32°52' E 152°51'4 9.4
2017-Sep-21 06:00S 32°55' E 152°48'5 9.2
2017-Sep-21 05:30S 32°58' E 152°45'510.0
2017-Sep-21 05:00S 33°02' E 152°41'510.6
2017-Sep-21 04:30S 33°06' E 152°37'611.5
2017-Sep-21 04:00S 33°10' E 152°31'611.3
2017-Sep-21 03:31S 33°14' E 152°28'612.2
2017-Sep-21 03:00S 33°20' E 152°25'1212.4
2017-Sep-21 02:04S 33°29' E 152°15'113.2
2017-Sep-21 02:00S 33°29' E 152°15'612.6
2017-Sep-21 01:30S 33°33' E 152°09'1212.3
2017-Sep-21 00:32S 33°41' E 151°58'011.2
2017-Sep-21 00:30S 33°42' E 151°58'1712.5
2017-Sep-20 23:08S 33°53' E 151°43'212.7
2017-Sep-20 22:59S 33°54' E 151°41'  
2017-Sep-18 18:57S 34°03' E 151°23'1 3.2
2017-Sep-18 18:30S 34°03' E 151°25'2 4.2
2017-Sep-18 18:00S 34°04' E 151°27'611.4
2017-Sep-18 17:30S 34°00' E 151°33'612.8
2017-Sep-18 17:01S 33°56' E 151°39'612.5
2017-Sep-18 16:30S 33°52' E 151°44'612.4
2017-Sep-18 16:00S 33°48' E 151°50'510.6
2017-Sep-18 15:30S 33°44' E 151°55'510.2
2017-Sep-18 15:00S 33°41' E 151°59'510.0
2017-Sep-18 14:30S 33°37' E 152°04'5 9.9
2017-Sep-18 14:00S 33°34' E 152°08'5 9.9
2017-Sep-18 13:30S 33°31' E 152°13'510.0
2017-Sep-18 13:00S 33°27' E 152°17'510.2
2017-Sep-18 12:30S 33°24' E 152°22'510.0
2017-Sep-18 12:00S 33°21' E 152°26'5 9.1
2017-Sep-18 11:30S 33°18' E 152°30'5 9.6
2017-Sep-18 11:00S 33°14' E 152°34'911.5
2017-Sep-18 10:13S 33°08' E 152°42'412.5
2017-Sep-18 09:56S 33°06' E 152°45'613.9
2017-Sep-18 09:30S 33°02' E 152°51'1214.4
2017-Sep-18 08:38S 32°50' E 152°54'614.2
2017-Sep-18 08:14S 32°44' E 152°57'314.4
2017-Sep-18 08:00S 32°41' E 152°58'714.0
2017-Sep-18 07:30S 32°35' E 153°01'  

Dump ship's entire track history